createdAt,value
2023-11-14T04:00:24.474Z,10.90
2023-11-14T04:02:52.408Z,12.43
2023-11-14T04:05:20.828Z,13.90
2023-11-14T04:07:49.509Z,14.07
2023-11-14T04:10:17.621Z,11.07
2023-11-14T04:12:46.054Z,11.93
2023-11-14T04:15:15.057Z,12.68
2023-11-14T04:17:44.440Z,9.50
2023-11-14T04:20:13.437Z,13.57
2023-11-14T04:22:41.432Z,13.52
2023-11-14T04:25:10.292Z,14.60
2023-11-14T04:27:38.251Z,11.48
2023-11-14T04:30:10.160Z,11.00
2023-11-14T04:32:39.705Z,14.55
2023-11-14T04:35:10.487Z,14.27
2023-11-14T04:37:38.465Z,17.08
2023-11-14T04:40:07.858Z,13.48
2023-11-14T04:42:35.839Z,13.98
2023-11-14T04:45:03.880Z,10.20
2023-11-14T04:47:31.835Z,13.07
2023-11-14T04:49:59.806Z,11.35
2023-11-14T04:52:29.233Z,12.68
2023-11-14T04:54:57.200Z,13.70
2023-11-14T04:57:25.075Z,9.80
2023-11-14T04:59:53.043Z,12.88
2023-11-14T05:02:21.353Z,10.20
2023-11-14T05:04:49.276Z,8.38
2023-11-14T05:07:17.185Z,13.48
2023-11-14T05:09:46.427Z,12.77
2023-11-14T05:12:14.346Z,14.15
2023-11-14T05:14:42.568Z,9.13
2023-11-14T05:17:10.535Z,9.40
2023-11-14T05:19:43.426Z,14.10
2023-11-14T05:22:12.188Z,7.57
2023-11-14T05:24:40.792Z,12.25
2023-11-14T05:27:10.390Z,14.02
2023-11-14T05:29:38.308Z,9.73
2023-11-14T05:32:07.256Z,8.93
2023-11-14T05:34:35.250Z,12.50
2023-11-14T05:37:05.621Z,8.52
2023-11-14T05:39:33.571Z,10.27
2023-11-14T05:42:01.514Z,8.65
2023-11-14T05:44:31.421Z,11.30
2023-11-14T05:46:59.521Z,11.25
2023-11-14T05:49:28.266Z,9.88
2023-11-14T05:51:56.609Z,13.57
2023-11-14T05:54:24.640Z,15.85
2023-11-14T05:56:52.574Z,10.70
2023-11-14T05:59:20.661Z,11.75
2023-11-14T06:01:49.972Z,7.75
2023-11-14T06:04:18.023Z,13.90
2023-11-14T06:06:46.050Z,9.40
2023-11-14T06:09:14.144Z,9.85
2023-11-14T06:11:42.298Z,13.63
2023-11-14T06:14:10.635Z,10.73
2023-11-14T06:16:39.269Z,10.35
2023-11-14T06:19:08.652Z,11.23
2023-11-14T06:21:36.574Z,12.68
2023-11-14T06:24:05.222Z,11.13
2023-11-14T06:26:33.158Z,11.25
2023-11-14T06:29:01.157Z,9.15
2023-11-14T06:31:29.143Z,12.57
2023-11-14T06:33:57.193Z,10.55
2023-11-14T06:36:26.445Z,7.93
2023-11-14T06:38:54.995Z,8.63
2023-11-14T06:41:27.978Z,14.10
2023-11-14T06:43:55.895Z,7.43
2023-11-14T06:46:23.933Z,11.40
2023-11-14T06:48:54.007Z,8.65
2023-11-14T06:51:22.972Z,12.25
2023-11-14T06:53:52.344Z,8.55
2023-11-14T06:56:21.256Z,11.90
2023-11-14T06:58:49.297Z,10.05
2023-11-14T07:01:17.221Z,15.40
2023-11-14T07:03:46.203Z,11.75
2023-11-14T07:06:14.231Z,10.30
2023-11-14T07:08:42.422Z,10.90
2023-11-14T07:11:12.490Z,9.75
2023-11-14T07:13:40.861Z,11.55
2023-11-14T07:16:10.873Z,10.48
2023-11-14T07:18:39.402Z,9.85
2023-11-14T07:21:07.442Z,12.02
2023-11-14T07:23:35.426Z,12.48
2023-11-14T07:26:03.455Z,8.10
2023-11-14T07:28:35.321Z,14.13
2023-11-14T07:31:03.352Z,12.55
2023-11-14T07:33:31.354Z,8.05
2023-11-14T07:35:59.626Z,12.10
2023-11-14T07:38:27.613Z,9.00
2023-11-14T07:40:55.579Z,10.98
2023-11-14T07:43:25.421Z,12.88
2023-11-14T07:45:54.716Z,13.25
2023-11-14T07:48:22.778Z,12.90
2023-11-14T07:50:50.750Z,11.43
2023-11-14T07:53:19.425Z,11.27
2023-11-14T07:55:47.467Z,11.23
2023-11-14T07:58:15.406Z,13.20
2023-11-14T08:00:43.608Z,10.00
2023-11-14T08:03:13.306Z,12.15
2023-11-14T08:05:42.395Z,15.40
2023-11-14T08:08:10.506Z,8.55
2023-11-14T08:10:39.305Z,16.33
2023-11-14T08:13:07.695Z,15.65
2023-11-14T08:15:36.082Z,7.50
2023-11-14T08:18:04.058Z,9.05
2023-11-14T08:20:33.937Z,8.55
2023-11-14T08:23:02.014Z,10.00
2023-11-14T08:25:32.235Z,13.90
2023-11-14T08:28:00.253Z,9.23
2023-11-14T08:30:28.875Z,8.38
2023-11-14T08:32:57.133Z,8.82
2023-11-14T08:35:26.365Z,9.30
2023-11-14T08:38:14.334Z,9.90
2023-11-14T08:40:47.751Z,10.50
2023-11-14T08:43:15.815Z,10.48
2023-11-14T08:45:43.827Z,9.00
2023-11-14T08:48:11.800Z,11.65
2023-11-14T08:50:40.695Z,12.65
2023-11-14T08:53:10.321Z,8.65
2023-11-14T08:55:38.315Z,11.75
2023-11-14T08:58:07.349Z,12.40
2023-11-14T09:00:36.593Z,9.20
2023-11-14T09:03:05.724Z,9.15
2023-11-14T09:05:37.227Z,9.88
2023-11-14T09:08:05.550Z,10.93
2023-11-14T09:10:34.890Z,9.02
2023-11-14T09:13:02.870Z,14.45
2023-11-14T09:15:33.302Z,8.63
2023-11-14T09:18:06.417Z,18.33
2023-11-14T09:20:34.816Z,9.18
2023-11-14T09:23:05.521Z,11.15
2023-11-14T09:25:35.422Z,10.40
2023-11-14T09:28:03.789Z,8.40
2023-11-14T09:30:31.740Z,13.43
2023-11-14T09:32:59.730Z,10.55
2023-11-14T09:35:28.168Z,8.00
2023-11-14T09:37:57.890Z,9.88
2023-11-14T09:40:26.695Z,9.38
2023-11-14T09:42:56.329Z,11.75
2023-11-14T09:45:34.989Z,12.40
2023-11-14T09:48:58.695Z,10.10
2023-11-14T09:51:27.862Z,13.00
2023-11-14T09:54:10.392Z,13.07
2023-11-14T09:56:39.308Z,14.15
2023-11-14T09:59:11.670Z,10.25
2023-11-14T10:01:41.912Z,10.57
2023-11-14T10:04:11.545Z,11.45
2023-11-14T10:06:42.034Z,10.38
2023-11-14T10:09:10.780Z,7.93
2023-11-14T10:12:11.422Z,13.00
2023-11-14T10:14:47.064Z,11.77
2023-11-14T10:17:18.458Z,10.45
2023-11-14T10:20:00.711Z,12.32
2023-11-14T10:22:34.361Z,17.30
2023-11-14T10:25:02.974Z,10.73
2023-11-14T10:27:32.227Z,8.73
2023-11-14T10:30:02.092Z,12.20
2023-11-14T10:32:31.851Z,11.63
2023-11-14T10:35:17.744Z,7.97
2023-11-14T10:37:49.331Z,9.25
2023-11-14T10:40:17.555Z,12.75
2023-11-14T10:42:54.592Z,9.07
2023-11-14T10:45:23.962Z,13.52
2023-11-14T10:47:53.233Z,10.60
2023-11-14T10:50:30.542Z,11.05
2023-11-14T10:53:00.507Z,11.45
2023-11-14T10:55:30.106Z,9.57
2023-11-14T10:57:58.127Z,11.07
2023-11-14T11:00:28.313Z,17.25
2023-11-14T11:02:56.390Z,14.15
2023-11-14T11:05:31.684Z,7.60
2023-11-14T11:08:01.162Z,16.52
2023-11-14T11:10:32.833Z,11.88
2023-11-14T11:13:02.855Z,12.32
2023-11-14T11:15:32.710Z,9.48
2023-11-14T11:18:02.455Z,13.57
2023-11-14T11:20:33.751Z,11.10
2023-11-14T11:23:09.404Z,10.15
2023-11-14T11:25:38.278Z,14.10
2023-11-14T11:28:33.497Z,12.25
2023-11-14T11:31:13.055Z,14.80
2023-11-14T11:33:43.044Z,14.52
2023-11-14T11:36:31.012Z,11.02
2023-11-14T11:39:01.421Z,6.82
2023-11-14T11:41:32.965Z,12.13
2023-11-14T11:44:07.345Z,10.20
2023-11-14T11:46:42.406Z,12.90
2023-11-14T11:49:33.334Z,10.05
2023-11-14T11:52:17.969Z,11.64
2023-11-14T11:54:47.463Z,8.57
2023-11-14T11:57:21.073Z,11.25
2023-11-14T12:00:22.749Z,7.53
2023-11-14T12:02:53.174Z,13.68
2023-11-14T12:05:22.573Z,8.77
2023-11-14T12:07:50.840Z,8.40
2023-11-14T12:10:24.685Z,9.18
2023-11-14T12:12:55.307Z,7.25
2023-11-14T12:15:24.591Z,11.88
2023-11-14T12:17:55.875Z,8.50
2023-11-14T12:20:25.766Z,10.95
2023-11-14T12:22:55.094Z,9.85
2023-11-14T12:25:23.781Z,7.50
2023-11-14T12:27:56.971Z,9.93
2023-11-14T12:30:27.829Z,12.82
2023-11-14T12:33:17.153Z,11.27
2023-11-14T12:35:51.218Z,9.52
2023-11-14T12:38:31.274Z,11.35
2023-11-14T12:41:28.577Z,7.65
2023-11-14T12:44:05.671Z,10.38
2023-11-14T12:46:38.123Z,7.43
2023-11-14T12:49:15.744Z,6.25
2023-11-14T12:51:45.849Z,9.40
2023-11-14T12:54:14.794Z,7.15
2023-11-14T12:56:44.338Z,7.13
2023-11-14T12:59:12.732Z,7.97
2023-11-14T13:01:41.907Z,9.10
2023-11-14T13:04:13.209Z,11.95
2023-11-14T13:06:45.849Z,6.05
2023-11-14T13:09:16.742Z,6.35
2023-11-14T13:11:45.339Z,9.30
2023-11-14T13:14:14.176Z,5.22
2023-11-14T13:16:44.306Z,5.18
2023-11-14T13:19:14.009Z,7.15
2023-11-14T13:21:43.412Z,5.47
2023-11-14T13:24:11.543Z,5.18
2023-11-14T13:26:39.601Z,5.65
2023-11-14T13:29:08.078Z,7.43
2023-11-14T13:31:36.360Z,5.75
2023-11-14T13:34:04.633Z,8.02
2023-11-14T13:36:33.541Z,6.68
2023-11-14T13:39:03.759Z,7.30
2023-11-14T13:41:38.965Z,8.80
2023-11-14T13:44:13.581Z,5.70
2023-11-14T13:46:41.676Z,5.90
2023-11-14T13:49:10.708Z,6.20
2023-11-14T13:51:37.696Z,4.05
2023-11-14T13:54:07.778Z,5.68
2023-11-14T13:56:36.285Z,4.97
2023-11-14T13:59:05.319Z,4.43
2023-11-14T14:01:34.207Z,5.28
2023-11-14T14:04:02.992Z,3.08
2023-11-14T14:06:31.154Z,5.40
2023-11-14T14:08:59.748Z,6.93
2023-11-14T14:11:30.107Z,5.97
2023-11-14T14:13:58.660Z,3.25
2023-11-14T14:16:27.325Z,4.53
2023-11-14T14:18:55.467Z,5.72
2023-11-14T14:21:23.829Z,5.15
2023-11-14T14:23:51.818Z,2.90
2023-11-14T14:26:19.858Z,5.03
2023-11-14T14:28:49.295Z,6.40
2023-11-14T14:31:20.001Z,4.47
2023-11-14T14:33:48.656Z,10.07
2023-11-14T14:36:17.022Z,3.78
2023-11-14T14:38:47.155Z,5.30
2023-11-14T14:41:15.634Z,4.97
2023-11-14T14:43:44.660Z,3.30
2023-11-14T14:46:14.114Z,6.70
2023-11-14T14:48:42.126Z,5.78
2023-11-14T14:51:10.557Z,3.90
2023-11-14T14:53:38.583Z,7.15
2023-11-14T14:56:07.512Z,3.53
2023-11-14T14:58:35.966Z,3.17
2023-11-14T15:01:06.367Z,2.55
2023-11-14T15:03:35.814Z,2.00
2023-11-14T15:06:03.992Z,4.63
2023-11-14T15:08:31.994Z,3.05
2023-11-14T15:10:59.958Z,4.72
2023-11-14T15:13:27.937Z,4.72
2023-11-14T15:15:55.969Z,4.45
2023-11-14T15:18:24.265Z,2.05
2023-11-14T15:20:55.085Z,2.72
2023-11-14T15:23:23.164Z,3.97
2023-11-14T15:25:52.232Z,3.33
2023-11-14T15:28:20.295Z,5.70
2023-11-14T15:30:48.328Z,4.40
2023-11-14T15:33:16.502Z,3.35
2023-11-14T15:35:45.998Z,4.45
2023-11-14T15:38:16.254Z,4.40
2023-11-14T15:40:45.459Z,2.83
2023-11-14T15:43:13.923Z,6.07
2023-11-14T15:45:41.948Z,3.70
2023-11-14T15:48:10.922Z,4.05
2023-11-14T15:50:38.955Z,2.85
2023-11-14T15:53:06.953Z,3.00
2023-11-14T15:55:36.273Z,4.35
2023-11-14T15:58:04.301Z,3.25
2023-11-14T16:00:33.938Z,2.88
2023-11-14T16:03:02.035Z,3.55
2023-11-14T16:05:32.284Z,4.32
2023-11-14T16:08:00.614Z,2.72
2023-11-14T16:10:28.708Z,2.20
2023-11-14T16:12:57.990Z,1.98
2023-11-14T16:15:26.519Z,2.13
2023-11-14T16:17:55.038Z,5.22
2023-11-14T16:20:24.220Z,1.13
2023-11-14T16:22:52.194Z,2.50
2023-11-14T16:25:22.771Z,4.90
2023-11-14T16:27:50.958Z,2.60
2023-11-14T16:30:21.746Z,2.55
2023-11-14T16:32:50.044Z,3.17
2023-11-14T16:35:18.327Z,1.95
2023-11-14T16:37:46.381Z,2.70
2023-11-14T16:40:14.418Z,3.50
2023-11-14T16:42:44.329Z,1.02
2023-11-14T16:45:12.838Z,1.15
2023-11-14T16:47:45.661Z,1.65
2023-11-14T16:50:13.912Z,1.33
2023-11-14T16:52:42.145Z,1.45
2023-11-14T16:55:11.329Z,4.93
2023-11-14T16:57:40.296Z,3.15
2023-11-14T17:00:09.553Z,1.98
2023-11-14T17:02:38.271Z,4.93
2023-11-14T17:05:08.603Z,2.90
2023-11-14T17:07:36.613Z,3.42
2023-11-14T17:10:04.876Z,1.50
2023-11-14T17:12:34.421Z,2.90
2023-11-14T17:15:02.531Z,5.15
2023-11-14T17:17:30.927Z,6.20
2023-11-14T17:19:58.964Z,4.13
2023-11-14T17:22:28.447Z,4.32
2023-11-14T17:24:56.411Z,2.42
2023-11-14T17:27:25.540Z,5.20
2023-11-14T17:29:53.651Z,4.82
2023-11-14T17:32:21.664Z,6.18
2023-11-14T17:34:51.921Z,4.90
2023-11-14T17:37:21.690Z,4.10
2023-11-14T17:39:51.092Z,7.05
2023-11-14T17:42:19.785Z,5.45
2023-11-14T17:44:49.424Z,7.75
2023-11-14T17:47:19.522Z,12.05
2023-11-14T17:49:47.667Z,17.75
2023-11-14T17:52:15.955Z,30.85
2023-11-14T17:54:44.750Z,6.40
2023-11-14T17:57:14.218Z,7.03
2023-11-14T17:59:43.667Z,6.97
2023-11-14T18:02:11.892Z,4.93
2023-11-14T18:04:40.434Z,4.40
2023-11-14T18:07:09.122Z,3.47
2023-11-14T18:09:37.559Z,9.43
2023-11-14T18:12:06.207Z,2.67
2023-11-14T18:14:36.778Z,4.35
2023-11-14T18:17:06.847Z,7.22
2023-11-14T18:19:37.444Z,6.20
2023-11-14T18:22:07.384Z,5.63
2023-11-14T18:24:37.480Z,2.83
2023-11-14T18:27:08.184Z,3.67
2023-11-14T18:29:37.537Z,2.05
2023-11-14T18:32:06.091Z,2.53
2023-11-14T18:34:38.618Z,1.77
2023-11-14T18:37:06.807Z,3.22
2023-11-14T18:39:36.059Z,3.08
2023-11-14T18:42:06.605Z,3.15
2023-11-14T18:44:34.997Z,3.78
2023-11-14T18:47:07.762Z,3.08
2023-11-14T18:49:36.463Z,3.67
2023-11-14T18:52:04.678Z,5.68
2023-11-14T18:54:32.606Z,3.30
2023-11-14T18:57:01.228Z,2.50
2023-11-14T18:59:29.862Z,4.00
2023-11-14T19:01:59.123Z,3.72
2023-11-14T19:04:28.479Z,2.75
2023-11-14T19:06:56.511Z,3.13
2023-11-14T19:09:25.716Z,2.10
2023-11-14T19:11:54.302Z,1.52
2023-11-14T19:14:22.266Z,2.75
2023-11-14T19:16:51.033Z,3.17
2023-11-14T19:19:19.353Z,2.78
2023-11-14T19:21:48.948Z,2.83
2023-11-14T19:24:19.794Z,3.13
2023-11-14T19:26:47.982Z,3.50
2023-11-14T19:29:16.762Z,2.10
2023-11-14T19:31:46.401Z,3.53
2023-11-14T19:34:16.963Z,3.35
2023-11-14T19:36:49.740Z,2.95
2023-11-14T19:39:18.131Z,2.80
2023-11-14T19:41:46.814Z,3.67
2023-11-14T19:44:15.411Z,2.63
2023-11-14T19:46:43.746Z,2.67
2023-11-14T19:49:11.821Z,1.85
2023-11-14T19:51:40.206Z,1.38
2023-11-14T19:54:10.522Z,3.50
2023-11-14T19:56:39.698Z,2.88
2023-11-14T19:59:08.371Z,2.35
2023-11-14T20:01:36.823Z,1.55
2023-11-14T20:04:05.413Z,1.63
2023-11-14T20:06:33.478Z,2.53
2023-11-14T20:09:01.489Z,2.17
2023-11-14T20:11:30.775Z,1.38
2023-11-14T20:13:58.701Z,1.00
2023-11-14T20:16:26.624Z,2.17
2023-11-14T20:18:54.557Z,1.88
2023-11-14T20:21:27.970Z,1.65
2023-11-14T20:23:58.556Z,1.98
2023-11-14T20:26:26.509Z,1.55
2023-11-14T20:28:55.786Z,2.40
2023-11-14T20:31:23.717Z,1.23
2023-11-14T20:33:51.995Z,1.60
2023-11-14T20:36:21.492Z,1.25
2023-11-14T20:38:49.655Z,2.10
2023-11-14T20:41:18.249Z,1.25
2023-11-14T20:43:46.189Z,1.02
2023-11-14T20:46:15.558Z,1.35
2023-11-14T20:48:43.485Z,1.75
2023-11-14T20:51:21.614Z,1.08
2023-11-14T20:53:53.443Z,2.20
2023-11-14T20:56:25.407Z,1.83
2023-11-14T20:58:54.012Z,1.13
2023-11-14T21:01:24.637Z,1.17
2023-11-14T21:03:53.178Z,1.65
2023-11-14T21:06:21.398Z,1.02
2023-11-14T21:08:49.535Z,1.70
2023-11-14T21:11:17.572Z,1.23
2023-11-14T21:13:45.585Z,3.58
2023-11-14T21:16:13.656Z,1.00
2023-11-14T21:18:43.130Z,2.95
2023-11-14T21:21:11.218Z,0.88
2023-11-14T21:23:40.396Z,1.90
2023-11-14T21:26:09.172Z,0.90
2023-11-14T21:28:37.224Z,3.15
2023-11-14T21:31:10.877Z,2.70
2023-11-14T21:33:39.598Z,2.08
2023-11-14T21:36:11.161Z,1.42
2023-11-14T21:38:39.838Z,0.73
2023-11-14T21:41:08.232Z,0.40
2023-11-14T21:43:36.335Z,1.13
2023-11-14T21:46:04.476Z,2.55
2023-11-14T21:48:32.480Z,1.75
2023-11-14T21:51:00.483Z,0.45
2023-11-14T21:53:31.740Z,2.53
2023-11-14T21:55:59.848Z,2.33
2023-11-14T21:58:27.845Z,0.35
2023-11-14T22:00:55.772Z,0.77
2023-11-14T22:03:23.833Z,0.70
2023-11-14T22:05:52.278Z,0.85
2023-11-14T22:08:20.319Z,1.23
2023-11-14T22:10:49.600Z,2.30
2023-11-14T22:13:17.556Z,0.60
2023-11-14T22:15:47.806Z,0.95
2023-11-14T22:18:18.092Z,0.38
2023-11-14T22:20:46.151Z,0.50
2023-11-14T22:23:15.400Z,1.48
2023-11-14T22:25:43.450Z,2.55
2023-11-14T22:28:13.172Z,1.75
2023-11-14T22:30:41.086Z,0.63
2023-11-14T22:33:09.079Z,0.88
2023-11-14T22:35:37.095Z,2.05
2023-11-14T22:38:05.060Z,2.08
2023-11-14T22:40:33.585Z,1.33
2023-11-14T22:43:02.581Z,1.77
2023-11-14T22:45:31.871Z,0.95
2023-11-14T22:47:59.997Z,3.42
2023-11-14T22:50:27.998Z,2.03
2023-11-14T22:52:55.921Z,1.40
2023-11-14T22:55:23.888Z,2.92
2023-11-14T22:57:51.823Z,0.77
